sensor_id;sensor_type;location;lat;lon;timestamp;P1;durP1;ratioP1;P2;durP2;ratioP2
17228;SDS011;8731;50.364;8.958;2023-10-31T00:00:33;4.07;;;3.67;;
17228;SDS011;8731;50.364;8.958;2023-10-31T00:04:56;4.40;;;3.40;;
17228;SDS011;8731;50.364;8.958;2023-10-31T00:09:20;5.50;;;3.90;;
17228;SDS011;8731;50.364;8.958;2023-10-31T00:13:42;4.03;;;3.63;;
17228;SDS011;8731;50.364;8.958;2023-10-31T00:18:05;3.67;;;3.10;;
17228;SDS011;8731;50.364;8.958;2023-10-31T00:22:28;3.43;;;2.53;;
17228;SDS011;8731;50.364;8.958;2023-10-31T00:26:51;4.30;;;2.03;;
17228;SDS011;8731;50.364;8.958;2023-10-31T00:31:15;3.30;;;2.40;;
17228;SDS011;8731;50.364;8.958;2023-10-31T00:35:40;3.63;;;2.27;;
17228;SDS011;8731;50.364;8.958;2023-10-31T00:40:03;3.73;;;2.23;;
17228;SDS011;8731;50.364;8.958;2023-10-31T00:44:28;4.13;;;1.97;;
17228;SDS011;8731;50.364;8.958;2023-10-31T00:48:50;2.33;;;2.13;;
17228;SDS011;8731;50.364;8.958;2023-10-31T00:53:13;2.70;;;2.00;;
17228;SDS011;8731;50.364;8.958;2023-10-31T00:57:37;2.60;;;1.97;;
17228;SDS011;8731;50.364;8.958;2023-10-31T01:02:01;4.13;;;1.87;;
17228;SDS011;8731;50.364;8.958;2023-10-31T01:06:24;2.57;;;1.60;;
17228;SDS011;8731;50.364;8.958;2023-10-31T01:10:47;1.87;;;1.60;;
17228;SDS011;8731;50.364;8.958;2023-10-31T01:15:10;1.33;;;1.10;;
17228;SDS011;8731;50.364;8.958;2023-10-31T01:19:34;1.60;;;1.20;;
17228;SDS011;8731;50.364;8.958;2023-10-31T01:23:58;1.57;;;1.07;;
17228;SDS011;8731;50.364;8.958;2023-10-31T01:28:24;1.33;;;1.10;;
17228;SDS011;8731;50.364;8.958;2023-10-31T01:32:47;1.37;;;1.17;;
17228;SDS011;8731;50.364;8.958;2023-10-31T01:37:11;2.07;;;1.00;;
17228;SDS011;8731;50.364;8.958;2023-10-31T01:41:34;2.23;;;0.90;;
17228;SDS011;8731;50.364;8.958;2023-10-31T01:45:57;2.00;;;1.00;;
17228;SDS011;8731;50.364;8.958;2023-10-31T01:50:20;1.00;;;0.80;;
17228;SDS011;8731;50.364;8.958;2023-10-31T01:54:46;0.60;;;0.60;;
17228;SDS011;8731;50.364;8.958;2023-10-31T01:59:08;1.73;;;0.73;;
17228;SDS011;8731;50.364;8.958;2023-10-31T02:03:31;4.73;;;0.93;;
17228;SDS011;8731;50.364;8.958;2023-10-31T02:07:57;1.10;;;0.70;;
17228;SDS011;8731;50.364;8.958;2023-10-31T02:12:34;0.70;;;0.70;;
17228;SDS011;8731;50.364;8.958;2023-10-31T02:16:59;0.73;;;0.60;;
17228;SDS011;8731;50.364;8.958;2023-10-31T02:21:22;0.83;;;0.70;;
17228;SDS011;8731;50.364;8.958;2023-10-31T02:25:49;3.37;;;0.70;;
17228;SDS011;8731;50.364;8.958;2023-10-31T02:30:12;1.10;;;0.77;;
17228;SDS011;8731;50.364;8.958;2023-10-31T02:34:35;1.63;;;0.67;;
17228;SDS011;8731;50.364;8.958;2023-10-31T02:38:58;1.20;;;0.80;;
17228;SDS011;8731;50.364;8.958;2023-10-31T02:43:24;2.33;;;0.60;;
17228;SDS011;8731;50.364;8.958;2023-10-31T02:47:46;2.13;;;0.70;;
17228;SDS011;8731;50.364;8.958;2023-10-31T02:52:09;1.33;;;1.00;;
17228;SDS011;8731;50.364;8.958;2023-10-31T02:56:33;1.77;;;1.17;;
17228;SDS011;8731;50.364;8.958;2023-10-31T03:00:58;2.27;;;0.90;;
17228;SDS011;8731;50.364;8.958;2023-10-31T03:05:20;1.33;;;0.83;;
17228;SDS011;8731;50.364;8.958;2023-10-31T03:09:44;1.70;;;0.67;;
17228;SDS011;8731;50.364;8.958;2023-10-31T03:14:06;1.53;;;1.00;;
17228;SDS011;8731;50.364;8.958;2023-10-31T03:18:30;1.23;;;0.67;;
17228;SDS011;8731;50.364;8.958;2023-10-31T03:22:53;5.63;;;0.93;;
17228;SDS011;8731;50.364;8.958;2023-10-31T03:27:15;3.27;;;0.67;;
17228;SDS011;8731;50.364;8.958;2023-10-31T03:31:38;2.27;;;0.60;;
17228;SDS011;8731;50.364;8.958;2023-10-31T03:36:03;1.90;;;0.80;;
17228;SDS011;8731;50.364;8.958;2023-10-31T03:40:26;0.90;;;0.60;;
17228;SDS011;8731;50.364;8.958;2023-10-31T03:44:49;2.33;;;0.80;;
17228;SDS011;8731;50.364;8.958;2023-10-31T03:49:12;2.50;;;0.90;;
17228;SDS011;8731;50.364;8.958;2023-10-31T03:53:37;1.43;;;0.60;;
17228;SDS011;8731;50.364;8.958;2023-10-31T03:57:59;1.73;;;0.70;;
17228;SDS011;8731;50.364;8.958;2023-10-31T04:02:21;0.60;;;0.50;;
17228;SDS011;8731;50.364;8.958;2023-10-31T04:06:44;2.77;;;0.70;;
17228;SDS011;8731;50.364;8.958;2023-10-31T04:11:08;3.13;;;0.70;;
17228;SDS011;8731;50.364;8.958;2023-10-31T04:15:30;5.73;;;1.10;;
17228;SDS011;8731;50.364;8.958;2023-10-31T04:19:54;2.10;;;0.70;;
17228;SDS011;8731;50.364;8.958;2023-10-31T04:24:17;2.57;;;0.67;;
17228;SDS011;8731;50.364;8.958;2023-10-31T04:28:41;2.23;;;1.00;;
17228;SDS011;8731;50.364;8.958;2023-10-31T04:33:03;2.37;;;1.00;;
17228;SDS011;8731;50.364;8.958;2023-10-31T04:37:26;0.90;;;0.90;;
17228;SDS011;8731;50.364;8.958;2023-10-31T04:41:48;1.90;;;0.80;;
17228;SDS011;8731;50.364;8.958;2023-10-31T04:46:12;1.80;;;1.10;;
17228;SDS011;8731;50.364;8.958;2023-10-31T04:50:34;1.43;;;0.70;;
17228;SDS011;8731;50.364;8.958;2023-10-31T04:54:57;3.63;;;1.07;;
17228;SDS011;8731;50.364;8.958;2023-10-31T04:59:21;3.93;;;1.00;;
17228;SDS011;8731;50.364;8.958;2023-10-31T05:03:45;2.93;;;1.00;;
17228;SDS011;8731;50.364;8.958;2023-10-31T05:08:07;2.33;;;0.70;;
17228;SDS011;8731;50.364;8.958;2023-10-31T05:12:30;2.63;;;0.90;;
17228;SDS011;8731;50.364;8.958;2023-10-31T05:16:52;2.80;;;0.70;;
17228;SDS011;8731;50.364;8.958;2023-10-31T05:21:20;1.13;;;0.60;;
17228;SDS011;8731;50.364;8.958;2023-10-31T05:25:43;1.87;;;0.80;;
17228;SDS011;8731;50.364;8.958;2023-10-31T05:30:06;2.20;;;0.80;;
17228;SDS011;8731;50.364;8.958;2023-10-31T05:34:30;1.60;;;1.13;;
17228;SDS011;8731;50.364;8.958;2023-10-31T05:38:53;1.37;;;0.70;;
17228;SDS011;8731;50.364;8.958;2023-10-31T05:43:16;1.33;;;1.00;;
17228;SDS011;8731;50.364;8.958;2023-10-31T05:47:39;3.90;;;0.90;;
17228;SDS011;8731;50.364;8.958;2023-10-31T05:52:02;1.63;;;0.73;;
17228;SDS011;8731;50.364;8.958;2023-10-31T05:56:26;3.57;;;1.10;;
17228;SDS011;8731;50.364;8.958;2023-10-31T06:00:49;1.77;;;0.77;;
17228;SDS011;8731;50.364;8.958;2023-10-31T06:05:12;3.17;;;1.10;;
17228;SDS011;8731;50.364;8.958;2023-10-31T06:09:34;2.30;;;1.10;;
17228;SDS011;8731;50.364;8.958;2023-10-31T06:13:58;3.27;;;1.00;;
17228;SDS011;8731;50.364;8.958;2023-10-31T06:18:21;0.80;;;0.80;;
17228;SDS011;8731;50.364;8.958;2023-10-31T06:22:43;1.57;;;1.33;;
17228;SDS011;8731;50.364;8.958;2023-10-31T06:27:06;3.67;;;0.80;;
17228;SDS011;8731;50.364;8.958;2023-10-31T06:31:30;2.13;;;0.80;;
17228;SDS011;8731;50.364;8.958;2023-10-31T06:35:52;2.20;;;1.00;;
17228;SDS011;8731;50.364;8.958;2023-10-31T06:40:15;2.70;;;1.23;;
17228;SDS011;8731;50.364;8.958;2023-10-31T06:44:37;3.00;;;1.60;;
17228;SDS011;8731;50.364;8.958;2023-10-31T06:49:01;3.27;;;1.40;;
17228;SDS011;8731;50.364;8.958;2023-10-31T06:53:23;1.30;;;1.20;;
17228;SDS011;8731;50.364;8.958;2023-10-31T06:57:46;1.73;;;1.50;;
17228;SDS011;8731;50.364;8.958;2023-10-31T07:02:09;4.13;;;3.20;;
17228;SDS011;8731;50.364;8.958;2023-10-31T07:06:32;4.63;;;3.90;;
17228;SDS011;8731;50.364;8.958;2023-10-31T07:10:57;7.33;;;4.03;;
17228;SDS011;8731;50.364;8.958;2023-10-31T07:15:19;3.47;;;2.30;;
17228;SDS011;8731;50.364;8.958;2023-10-31T07:19:42;7.23;;;4.70;;
17228;SDS011;8731;50.364;8.958;2023-10-31T07:24:07;2.77;;;2.00;;
17228;SDS011;8731;50.364;8.958;2023-10-31T07:28:30;2.87;;;2.10;;
17228;SDS011;8731;50.364;8.958;2023-10-31T07:32:53;3.03;;;1.67;;
17228;SDS011;8731;50.364;8.958;2023-10-31T07:37:15;3.27;;;1.77;;
17228;SDS011;8731;50.364;8.958;2023-10-31T07:41:39;2.13;;;1.00;;
17228;SDS011;8731;50.364;8.958;2023-10-31T07:46:04;3.67;;;1.20;;
17228;SDS011;8731;50.364;8.958;2023-10-31T07:50:27;3.03;;;1.20;;
17228;SDS011;8731;50.364;8.958;2023-10-31T07:54:49;1.87;;;1.00;;
17228;SDS011;8731;50.364;8.958;2023-10-31T07:59:14;1.23;;;0.90;;
17228;SDS011;8731;50.364;8.958;2023-10-31T08:03:37;2.27;;;0.90;;
17228;SDS011;8731;50.364;8.958;2023-10-31T08:08:00;3.93;;;1.10;;
17228;SDS011;8731;50.364;8.958;2023-10-31T08:12:23;1.83;;;0.90;;
17228;SDS011;8731;50.364;8.958;2023-10-31T08:16:48;2.27;;;1.63;;
17228;SDS011;8731;50.364;8.958;2023-10-31T08:21:11;7.00;;;2.93;;
17228;SDS011;8731;50.364;8.958;2023-10-31T08:25:35;1.13;;;1.03;;
17228;SDS011;8731;50.364;8.958;2023-10-31T08:29:57;2.30;;;1.40;;
17228;SDS011;8731;50.364;8.958;2023-10-31T08:34:21;4.60;;;1.63;;
17228;SDS011;8731;50.364;8.958;2023-10-31T08:38:43;2.57;;;1.20;;
17228;SDS011;8731;50.364;8.958;2023-10-31T08:43:06;2.77;;;1.23;;
17228;SDS011;8731;50.364;8.958;2023-10-31T08:47:28;5.53;;;1.40;;
17228;SDS011;8731;50.364;8.958;2023-10-31T08:51:52;5.53;;;1.77;;
17228;SDS011;8731;50.364;8.958;2023-10-31T08:56:14;4.43;;;1.80;;
17228;SDS011;8731;50.364;8.958;2023-10-31T09:00:37;2.90;;;1.60;;
17228;SDS011;8731;50.364;8.958;2023-10-31T09:05:00;4.00;;;1.70;;
17228;SDS011;8731;50.364;8.958;2023-10-31T09:09:24;5.90;;;2.00;;
17228;SDS011;8731;50.364;8.958;2023-10-31T09:13:47;5.90;;;2.53;;
17228;SDS011;8731;50.364;8.958;2023-10-31T09:18:09;3.67;;;1.90;;
17228;SDS011;8731;50.364;8.958;2023-10-31T09:22:31;2.27;;;1.47;;
17228;SDS011;8731;50.364;8.958;2023-10-31T09:26:55;2.53;;;1.43;;
17228;SDS011;8731;50.364;8.958;2023-10-31T09:31:19;2.37;;;1.50;;
17228;SDS011;8731;50.364;8.958;2023-10-31T09:35:42;2.50;;;2.00;;
17228;SDS011;8731;50.364;8.958;2023-10-31T09:40:05;3.10;;;1.90;;
17228;SDS011;8731;50.364;8.958;2023-10-31T09:44:31;3.20;;;1.53;;
17228;SDS011;8731;50.364;8.958;2023-10-31T09:48:53;4.03;;;1.70;;
17228;SDS011;8731;50.364;8.958;2023-10-31T09:53:17;3.13;;;1.80;;
17228;SDS011;8731;50.364;8.958;2023-10-31T09:57:39;4.00;;;1.77;;
17228;SDS011;8731;50.364;8.958;2023-10-31T10:02:03;1.97;;;1.47;;
17228;SDS011;8731;50.364;8.958;2023-10-31T10:06:26;3.33;;;2.13;;
17228;SDS011;8731;50.364;8.958;2023-10-31T10:10:49;4.40;;;2.07;;
17228;SDS011;8731;50.364;8.958;2023-10-31T10:15:12;5.20;;;2.30;;
17228;SDS011;8731;50.364;8.958;2023-10-31T10:19:36;3.37;;;2.40;;
17228;SDS011;8731;50.364;8.958;2023-10-31T10:23:59;3.10;;;2.27;;
17228;SDS011;8731;50.364;8.958;2023-10-31T10:28:21;4.57;;;1.93;;
17228;SDS011;8731;50.364;8.958;2023-10-31T10:32:44;3.67;;;1.83;;
17228;SDS011;8731;50.364;8.958;2023-10-31T10:37:12;2.83;;;2.00;;
17228;SDS011;8731;50.364;8.958;2023-10-31T10:41:35;3.23;;;1.80;;
17228;SDS011;8731;50.364;8.958;2023-10-31T10:46:03;5.00;;;2.60;;
17228;SDS011;8731;50.364;8.958;2023-10-31T10:50:30;3.47;;;2.10;;
17228;SDS011;8731;50.364;8.958;2023-10-31T10:55:04;2.70;;;1.80;;
17228;SDS011;8731;50.364;8.958;2023-10-31T10:59:39;1.97;;;1.20;;
17228;SDS011;8731;50.364;8.958;2023-10-31T11:04:05;5.20;;;1.17;;
17228;SDS011;8731;50.364;8.958;2023-10-31T11:08:30;2.30;;;1.27;;
17228;SDS011;8731;50.364;8.958;2023-10-31T11:12:56;2.40;;;1.00;;
17228;SDS011;8731;50.364;8.958;2023-10-31T11:17:21;3.60;;;1.70;;
17228;SDS011;8731;50.364;8.958;2023-10-31T11:21:55;1.40;;;1.30;;
17228;SDS011;8731;50.364;8.958;2023-10-31T11:26:20;2.63;;;0.90;;
17228;SDS011;8731;50.364;8.958;2023-10-31T11:30:44;1.00;;;0.90;;
17228;SDS011;8731;50.364;8.958;2023-10-31T11:35:17;1.83;;;1.43;;
17228;SDS011;8731;50.364;8.958;2023-10-31T11:39:40;1.70;;;1.30;;
17228;SDS011;8731;50.364;8.958;2023-10-31T11:44:02;4.70;;;2.13;;
17228;SDS011;8731;50.364;8.958;2023-10-31T11:48:44;1.90;;;1.30;;
17228;SDS011;8731;50.364;8.958;2023-10-31T11:53:10;1.87;;;1.40;;
17228;SDS011;8731;50.364;8.958;2023-10-31T11:57:36;2.33;;;1.40;;
17228;SDS011;8731;50.364;8.958;2023-10-31T12:02:00;2.23;;;1.10;;
17228;SDS011;8731;50.364;8.958;2023-10-31T12:06:35;2.20;;;1.20;;
17228;SDS011;8731;50.364;8.958;2023-10-31T12:11:05;1.20;;;1.10;;
17228;SDS011;8731;50.364;8.958;2023-10-31T12:15:29;1.07;;;0.67;;
17228;SDS011;8731;50.364;8.958;2023-10-31T12:19:54;1.60;;;0.80;;
17228;SDS011;8731;50.364;8.958;2023-10-31T12:24:18;2.43;;;1.97;;
17228;SDS011;8731;50.364;8.958;2023-10-31T12:28:41;1.37;;;0.80;;
17228;SDS011;8731;50.364;8.958;2023-10-31T12:33:03;1.47;;;0.77;;
17228;SDS011;8731;50.364;8.958;2023-10-31T12:37:26;1.83;;;0.80;;
17228;SDS011;8731;50.364;8.958;2023-10-31T12:41:50;1.70;;;0.87;;
17228;SDS011;8731;50.364;8.958;2023-10-31T12:46:25;1.13;;;1.00;;
17228;SDS011;8731;50.364;8.958;2023-10-31T12:50:55;3.03;;;1.00;;
17228;SDS011;8731;50.364;8.958;2023-10-31T12:55:29;1.97;;;0.67;;
17228;SDS011;8731;50.364;8.958;2023-10-31T13:00:00;1.73;;;1.10;;
17228;SDS011;8731;50.364;8.958;2023-10-31T13:04:26;2.40;;;1.30;;
17228;SDS011;8731;50.364;8.958;2023-10-31T13:08:49;1.47;;;1.20;;
17228;SDS011;8731;50.364;8.958;2023-10-31T13:13:12;2.37;;;1.10;;
17228;SDS011;8731;50.364;8.958;2023-10-31T13:17:36;1.20;;;0.93;;
17228;SDS011;8731;50.364;8.958;2023-10-31T13:21:58;1.90;;;1.30;;
17228;SDS011;8731;50.364;8.958;2023-10-31T13:26:21;4.03;;;1.13;;
17228;SDS011;8731;50.364;8.958;2023-10-31T13:30:43;2.30;;;1.07;;
17228;SDS011;8731;50.364;8.958;2023-10-31T13:35:08;3.00;;;0.83;;
17228;SDS011;8731;50.364;8.958;2023-10-31T13:39:31;2.13;;;1.40;;
17228;SDS011;8731;50.364;8.958;2023-10-31T13:43:53;1.00;;;0.90;;
17228;SDS011;8731;50.364;8.958;2023-10-31T13:48:16;4.80;;;1.70;;
17228;SDS011;8731;50.364;8.958;2023-10-31T13:52:40;3.17;;;1.53;;
17228;SDS011;8731;50.364;8.958;2023-10-31T13:57:03;2.47;;;1.10;;
17228;SDS011;8731;50.364;8.958;2023-10-31T14:01:25;1.70;;;1.13;;
17228;SDS011;8731;50.364;8.958;2023-10-31T14:05:48;3.77;;;1.80;;
17228;SDS011;8731;50.364;8.958;2023-10-31T14:10:12;2.70;;;1.40;;
17228;SDS011;8731;50.364;8.958;2023-10-31T14:14:35;3.03;;;2.00;;
17228;SDS011;8731;50.364;8.958;2023-10-31T14:18:58;3.93;;;1.97;;
17228;SDS011;8731;50.364;8.958;2023-10-31T14:23:22;4.27;;;1.50;;
17228;SDS011;8731;50.364;8.958;2023-10-31T14:27:46;3.47;;;2.13;;
17228;SDS011;8731;50.364;8.958;2023-10-31T14:32:09;3.17;;;1.27;;
17228;SDS011;8731;50.364;8.958;2023-10-31T14:36:31;2.47;;;1.60;;
17228;SDS011;8731;50.364;8.958;2023-10-31T14:40:53;3.90;;;1.37;;
17228;SDS011;8731;50.364;8.958;2023-10-31T14:45:17;1.60;;;1.00;;
17228;SDS011;8731;50.364;8.958;2023-10-31T14:49:40;2.53;;;1.20;;
17228;SDS011;8731;50.364;8.958;2023-10-31T14:54:04;1.93;;;1.00;;
17228;SDS011;8731;50.364;8.958;2023-10-31T14:58:29;3.60;;;1.57;;
17228;SDS011;8731;50.364;8.958;2023-10-31T15:02:53;3.67;;;1.13;;
17228;SDS011;8731;50.364;8.958;2023-10-31T15:07:15;3.07;;;1.30;;
17228;SDS011;8731;50.364;8.958;2023-10-31T15:11:38;3.23;;;1.20;;
17228;SDS011;8731;50.364;8.958;2023-10-31T15:16:00;3.50;;;2.10;;
17228;SDS011;8731;50.364;8.958;2023-10-31T15:20:25;4.57;;;2.20;;
17228;SDS011;8731;50.364;8.958;2023-10-31T15:24:47;2.90;;;1.27;;
17228;SDS011;8731;50.364;8.958;2023-10-31T15:29:10;6.53;;;3.67;;
17228;SDS011;8731;50.364;8.958;2023-10-31T15:33:33;5.37;;;4.83;;
17228;SDS011;8731;50.364;8.958;2023-10-31T15:37:57;7.07;;;5.60;;
17228;SDS011;8731;50.364;8.958;2023-10-31T15:42:19;9.27;;;5.60;;
17228;SDS011;8731;50.364;8.958;2023-10-31T15:46:42;5.23;;;3.40;;
17228;SDS011;8731;50.364;8.958;2023-10-31T15:51:04;6.33;;;3.97;;
17228;SDS011;8731;50.364;8.958;2023-10-31T15:55:28;8.13;;;3.87;;
17228;SDS011;8731;50.364;8.958;2023-10-31T15:59:51;12.23;;;4.10;;
17228;SDS011;8731;50.364;8.958;2023-10-31T16:04:13;5.70;;;3.83;;
17228;SDS011;8731;50.364;8.958;2023-10-31T16:08:36;10.80;;;7.33;;
17228;SDS011;8731;50.364;8.958;2023-10-31T16:13:01;12.93;;;7.83;;
17228;SDS011;8731;50.364;8.958;2023-10-31T16:17:24;12.00;;;8.03;;
17228;SDS011;8731;50.364;8.958;2023-10-31T16:21:47;14.70;;;9.10;;
17228;SDS011;8731;50.364;8.958;2023-10-31T16:26:11;15.63;;;10.97;;
17228;SDS011;8731;50.364;8.958;2023-10-31T16:30:36;9.90;;;6.13;;
17228;SDS011;8731;50.364;8.958;2023-10-31T16:34:58;7.83;;;4.43;;
17228;SDS011;8731;50.364;8.958;2023-10-31T16:39:21;8.40;;;3.80;;
17228;SDS011;8731;50.364;8.958;2023-10-31T16:43:43;7.20;;;3.27;;
17228;SDS011;8731;50.364;8.958;2023-10-31T16:48:07;8.83;;;5.00;;
17228;SDS011;8731;50.364;8.958;2023-10-31T16:52:30;3.90;;;3.27;;
17228;SDS011;8731;50.364;8.958;2023-10-31T16:56:52;7.27;;;4.47;;
17228;SDS011;8731;50.364;8.958;2023-10-31T17:01:14;6.23;;;4.00;;
17228;SDS011;8731;50.364;8.958;2023-10-31T17:05:38;8.23;;;4.20;;
17228;SDS011;8731;50.364;8.958;2023-10-31T17:10:00;9.40;;;5.20;;
17228;SDS011;8731;50.364;8.958;2023-10-31T17:14:24;8.07;;;5.27;;
17228;SDS011;8731;50.364;8.958;2023-10-31T17:18:46;9.67;;;5.33;;
17228;SDS011;8731;50.364;8.958;2023-10-31T17:23:10;8.87;;;4.63;;
17228;SDS011;8731;50.364;8.958;2023-10-31T17:27:32;6.60;;;3.20;;
17228;SDS011;8731;50.364;8.958;2023-10-31T17:31:55;6.93;;;2.77;;
17228;SDS011;8731;50.364;8.958;2023-10-31T17:36:17;13.27;;;3.57;;
17228;SDS011;8731;50.364;8.958;2023-10-31T17:40:44;7.17;;;2.40;;
17228;SDS011;8731;50.364;8.958;2023-10-31T17:45:07;6.43;;;1.70;;
17228;SDS011;8731;50.364;8.958;2023-10-31T17:49:33;3.33;;;1.20;;
17228;SDS011;8731;50.364;8.958;2023-10-31T17:53:56;4.03;;;1.20;;
17228;SDS011;8731;50.364;8.958;2023-10-31T17:58:20;6.77;;;2.27;;
17228;SDS011;8731;50.364;8.958;2023-10-31T18:02:43;5.13;;;2.70;;
17228;SDS011;8731;50.364;8.958;2023-10-31T18:07:05;6.43;;;3.23;;
17228;SDS011;8731;50.364;8.958;2023-10-31T18:11:29;11.27;;;6.00;;
17228;SDS011;8731;50.364;8.958;2023-10-31T18:15:53;9.37;;;5.00;;
17228;SDS011;8731;50.364;8.958;2023-10-31T18:20:15;9.17;;;6.10;;
17228;SDS011;8731;50.364;8.958;2023-10-31T18:24:38;8.43;;;6.33;;
17228;SDS011;8731;50.364;8.958;2023-10-31T18:29:00;10.07;;;6.40;;
17228;SDS011;8731;50.364;8.958;2023-10-31T18:33:24;8.77;;;5.20;;
17228;SDS011;8731;50.364;8.958;2023-10-31T18:37:46;6.83;;;4.20;;
17228;SDS011;8731;50.364;8.958;2023-10-31T18:42:10;6.17;;;3.60;;
17228;SDS011;8731;50.364;8.958;2023-10-31T18:46:34;8.97;;;4.80;;
17228;SDS011;8731;50.364;8.958;2023-10-31T18:50:58;7.03;;;4.00;;
17228;SDS011;8731;50.364;8.958;2023-10-31T18:55:21;4.87;;;2.50;;
17228;SDS011;8731;50.364;8.958;2023-10-31T18:59:43;4.80;;;2.50;;
17228;SDS011;8731;50.364;8.958;2023-10-31T19:04:07;5.10;;;1.90;;
17228;SDS011;8731;50.364;8.958;2023-10-31T19:08:34;5.47;;;2.00;;
17228;SDS011;8731;50.364;8.958;2023-10-31T19:12:56;4.30;;;1.83;;
17228;SDS011;8731;50.364;8.958;2023-10-31T19:17:19;4.10;;;2.03;;
17228;SDS011;8731;50.364;8.958;2023-10-31T19:21:41;4.30;;;1.93;;
17228;SDS011;8731;50.364;8.958;2023-10-31T19:26:05;4.10;;;2.47;;
17228;SDS011;8731;50.364;8.958;2023-10-31T19:30:27;3.97;;;2.43;;
17228;SDS011;8731;50.364;8.958;2023-10-31T19:34:50;7.57;;;2.97;;
17228;SDS011;8731;50.364;8.958;2023-10-31T19:39:12;10.90;;;4.17;;
17228;SDS011;8731;50.364;8.958;2023-10-31T19:43:38;6.33;;;2.87;;
17228;SDS011;8731;50.364;8.958;2023-10-31T19:48:00;5.23;;;3.67;;
17228;SDS011;8731;50.364;8.958;2023-10-31T19:52:23;4.57;;;3.03;;
17228;SDS011;8731;50.364;8.958;2023-10-31T19:56:46;5.73;;;4.17;;
17228;SDS011;8731;50.364;8.958;2023-10-31T20:01:10;9.73;;;4.53;;
17228;SDS011;8731;50.364;8.958;2023-10-31T20:05:34;7.20;;;4.10;;
17228;SDS011;8731;50.364;8.958;2023-10-31T20:09:57;5.73;;;3.37;;
17228;SDS011;8731;50.364;8.958;2023-10-31T20:14:19;5.53;;;2.40;;
17228;SDS011;8731;50.364;8.958;2023-10-31T20:18:43;4.53;;;2.20;;
17228;SDS011;8731;50.364;8.958;2023-10-31T20:23:06;4.30;;;2.37;;
17228;SDS011;8731;50.364;8.958;2023-10-31T20:27:29;3.63;;;2.17;;
17228;SDS011;8731;50.364;8.958;2023-10-31T20:31:51;3.80;;;2.37;;
17228;SDS011;8731;50.364;8.958;2023-10-31T20:36:17;4.83;;;3.50;;
17228;SDS011;8731;50.364;8.958;2023-10-31T20:40:39;4.00;;;2.80;;
17228;SDS011;8731;50.364;8.958;2023-10-31T20:45:02;4.50;;;2.27;;
17228;SDS011;8731;50.364;8.958;2023-10-31T20:49:25;4.13;;;2.47;;
17228;SDS011;8731;50.364;8.958;2023-10-31T20:53:49;2.30;;;1.77;;
17228;SDS011;8731;50.364;8.958;2023-10-31T20:58:11;5.70;;;2.20;;
17228;SDS011;8731;50.364;8.958;2023-10-31T21:02:34;6.27;;;3.23;;
17228;SDS011;8731;50.364;8.958;2023-10-31T21:06:56;4.93;;;3.57;;
17228;SDS011;8731;50.364;8.958;2023-10-31T21:11:20;7.63;;;3.27;;
17228;SDS011;8731;50.364;8.958;2023-10-31T21:15:43;4.97;;;2.50;;
17228;SDS011;8731;50.364;8.958;2023-10-31T21:20:06;5.37;;;3.20;;
17228;SDS011;8731;50.364;8.958;2023-10-31T21:24:30;6.53;;;2.80;;
17228;SDS011;8731;50.364;8.958;2023-10-31T21:28:54;3.90;;;2.57;;
17228;SDS011;8731;50.364;8.958;2023-10-31T21:33:18;5.13;;;2.13;;
17228;SDS011;8731;50.364;8.958;2023-10-31T21:37:42;5.20;;;2.27;;
17228;SDS011;8731;50.364;8.958;2023-10-31T21:42:05;5.33;;;2.83;;
17228;SDS011;8731;50.364;8.958;2023-10-31T21:46:30;5.30;;;3.50;;
17228;SDS011;8731;50.364;8.958;2023-10-31T21:50:53;7.17;;;3.97;;
17228;SDS011;8731;50.364;8.958;2023-10-31T21:55:15;9.83;;;4.67;;
17228;SDS011;8731;50.364;8.958;2023-10-31T21:59:38;8.57;;;4.10;;
17228;SDS011;8731;50.364;8.958;2023-10-31T22:04:03;7.50;;;3.57;;
17228;SDS011;8731;50.364;8.958;2023-10-31T22:08:26;8.73;;;3.17;;
17228;SDS011;8731;50.364;8.958;2023-10-31T22:12:50;4.23;;;2.20;;
17228;SDS011;8731;50.364;8.958;2023-10-31T22:17:14;6.13;;;3.20;;
17228;SDS011;8731;50.364;8.958;2023-10-31T22:21:38;3.23;;;2.03;;
17228;SDS011;8731;50.364;8.958;2023-10-31T22:26:00;4.73;;;2.33;;
17228;SDS011;8731;50.364;8.958;2023-10-31T22:30:22;4.83;;;1.70;;
17228;SDS011;8731;50.364;8.958;2023-10-31T22:34:45;4.77;;;1.57;;
17228;SDS011;8731;50.364;8.958;2023-10-31T22:39:09;4.33;;;1.57;;
17228;SDS011;8731;50.364;8.958;2023-10-31T22:43:32;4.60;;;1.80;;
17228;SDS011;8731;50.364;8.958;2023-10-31T22:47:54;2.73;;;1.57;;
17228;SDS011;8731;50.364;8.958;2023-10-31T22:52:17;6.70;;;1.50;;
17228;SDS011;8731;50.364;8.958;2023-10-31T22:56:42;2.27;;;1.43;;
17228;SDS011;8731;50.364;8.958;2023-10-31T23:01:04;3.97;;;1.63;;
17228;SDS011;8731;50.364;8.958;2023-10-31T23:05:27;4.13;;;1.73;;
17228;SDS011;8731;50.364;8.958;2023-10-31T23:09:50;4.67;;;1.57;;
17228;SDS011;8731;50.364;8.958;2023-10-31T23:14:15;3.53;;;1.50;;
17228;SDS011;8731;50.364;8.958;2023-10-31T23:18:38;7.80;;;3.00;;
17228;SDS011;8731;50.364;8.958;2023-10-31T23:23:01;4.23;;;2.00;;
17228;SDS011;8731;50.364;8.958;2023-10-31T23:27:24;4.60;;;1.60;;
17228;SDS011;8731;50.364;8.958;2023-10-31T23:31:48;4.60;;;1.90;;
17228;SDS011;8731;50.364;8.958;2023-10-31T23:36:11;2.70;;;1.50;;
17228;SDS011;8731;50.364;8.958;2023-10-31T23:40:33;5.33;;;2.37;;
17228;SDS011;8731;50.364;8.958;2023-10-31T23:44:55;2.20;;;1.20;;
17228;SDS011;8731;50.364;8.958;2023-10-31T23:49:20;3.33;;;1.40;;
17228;SDS011;8731;50.364;8.958;2023-10-31T23:53:42;3.73;;;1.37;;
17228;SDS011;8731;50.364;8.958;2023-10-31T23:58:05;3.83;;;1.30;;
